createdAt,value
2018-03-24T00:01:13.894Z,0.70
2018-03-24T00:03:42.630Z,0.70
2018-03-24T00:06:11.267Z,0.60
2018-03-24T00:08:39.790Z,0.60
2018-03-24T00:11:08.378Z,0.60
2018-03-24T00:13:37.976Z,0.60
2018-03-24T00:16:08.081Z,0.50
2018-03-24T00:18:36.691Z,0.50
2018-03-24T00:21:05.257Z,0.40
2018-03-24T00:23:34.075Z,0.40
2018-03-24T00:26:02.912Z,0.40
2018-03-24T00:28:32.444Z,0.30
2018-03-24T00:31:01.178Z,0.20
2018-03-24T00:33:30.719Z,0.20
2018-03-24T00:35:59.545Z,0.20
2018-03-24T00:38:28.189Z,0.20
2018-03-24T00:40:56.861Z,0.20
2018-03-24T00:43:25.767Z,0.30
2018-03-24T00:45:55.516Z,0.40
2018-03-24T00:48:25.006Z,0.40
2018-03-24T00:50:53.672Z,0.40
2018-03-24T00:53:22.397Z,0.30
2018-03-24T00:55:51.195Z,0.30
2018-03-24T00:58:19.818Z,0.30
2018-03-24T01:00:48.524Z,0.20
2018-03-24T01:03:17.190Z,0.20
2018-03-24T01:05:45.757Z,0.10
2018-03-24T01:08:14.363Z,0.00
2018-03-24T01:10:44.538Z,-0.30
2018-03-24T01:13:13.183Z,-0.30
2018-03-24T01:15:42.302Z,-0.40
2018-03-24T01:18:11.697Z,-0.40
2018-03-24T01:20:40.626Z,-0.40
2018-03-24T01:23:09.349Z,-0.50
2018-03-24T01:25:38.712Z,-0.40
2018-03-24T01:28:07.468Z,-0.40
2018-03-24T01:30:37.012Z,-0.30
2018-03-24T01:33:06.314Z,-0.20
2018-03-24T01:35:34.956Z,-0.30
2018-03-24T01:38:03.569Z,-0.20
2018-03-24T01:40:32.166Z,-0.20
2018-03-24T01:43:00.762Z,-0.30
2018-03-24T01:45:30.196Z,-0.20
2018-03-24T01:48:00.336Z,-0.20
2018-03-24T01:50:30.249Z,-0.20
2018-03-24T01:52:59.632Z,-0.10
2018-03-24T01:55:28.266Z,-0.20
2018-03-24T01:57:56.822Z,-0.20
2018-03-24T02:00:25.581Z,-0.10
2018-03-24T02:02:54.158Z,-0.10
2018-03-24T02:05:22.796Z,-0.20
2018-03-24T02:07:52.273Z,-0.30
2018-03-24T02:10:20.944Z,-0.40
2018-03-24T02:12:50.293Z,-0.50
2018-03-24T02:15:19.036Z,-0.50
2018-03-24T02:17:47.704Z,-0.50
2018-03-24T02:20:16.999Z,-0.50
2018-03-24T02:22:46.428Z,-0.50
2018-03-24T02:25:19.271Z,-0.40
2018-03-24T02:27:47.873Z,-0.40
2018-03-24T02:30:16.584Z,-0.40
2018-03-24T02:32:45.186Z,-0.40
2018-03-24T02:35:14.611Z,-0.50
2018-03-24T02:37:43.287Z,-0.50
2018-03-24T02:40:11.952Z,-0.60
2018-03-24T02:42:40.662Z,-0.60
2018-03-24T02:45:09.391Z,-0.60
2018-03-24T02:47:39.196Z,-0.60
2018-03-24T02:50:08.618Z,-0.70
2018-03-24T02:52:37.205Z,-0.60
2018-03-24T02:55:05.820Z,-0.60
2018-03-24T02:57:35.112Z,-0.60
2018-03-24T03:00:03.886Z,-0.70
2018-03-24T03:02:33.188Z,-0.90
2018-03-24T03:05:01.996Z,-0.90
2018-03-24T03:07:30.736Z,-1.00
2018-03-24T03:09:59.279Z,-1.10
2018-03-24T03:12:28.041Z,-1.10
2018-03-24T03:14:57.409Z,-1.20
2018-03-24T03:17:26.336Z,-1.20
2018-03-24T03:19:55.773Z,-1.20
2018-03-24T03:22:25.035Z,-1.10
2018-03-24T03:24:53.718Z,-1.00
2018-03-24T03:27:23.169Z,-1.00
2018-03-24T03:29:51.933Z,-1.00
2018-03-24T03:32:21.588Z,-0.90
2018-03-24T03:34:50.268Z,-1.00
2018-03-24T03:37:19.041Z,-0.90
2018-03-24T03:39:47.626Z,-0.90
2018-03-24T03:42:16.222Z,-0.80
2018-03-24T03:44:45.190Z,-0.80
2018-03-24T03:47:14.476Z,-0.80
2018-03-24T03:49:43.296Z,-0.80
2018-03-24T03:52:12.391Z,-0.80
2018-03-24T03:54:41.488Z,-0.80
2018-03-24T03:57:10.886Z,-0.80
2018-03-24T03:59:39.446Z,-0.80
2018-03-24T04:02:08.070Z,-0.80
2018-03-24T04:04:36.666Z,-0.70
2018-03-24T04:07:05.341Z,-0.80
2018-03-24T04:09:34.679Z,-1.00
2018-03-24T04:12:03.218Z,-1.00
2018-03-24T04:14:31.806Z,-1.00
2018-03-24T04:17:00.588Z,-1.00
2018-03-24T04:19:29.261Z,-0.90
2018-03-24T04:21:57.987Z,-0.80
2018-03-24T04:24:28.231Z,-0.80
2018-03-24T04:26:57.657Z,-0.90
2018-03-24T04:29:27.045Z,-1.00
2018-03-24T04:31:55.660Z,-1.00
2018-03-24T04:34:24.438Z,-1.10
2018-03-24T04:36:53.020Z,-1.20
2018-03-24T04:39:21.766Z,-1.20
2018-03-24T04:41:50.422Z,-1.10
2018-03-24T04:44:19.062Z,-1.10
2018-03-24T04:46:47.757Z,-1.10
2018-03-24T04:49:16.355Z,-1.00
2018-03-24T04:51:45.630Z,-1.00
2018-03-24T04:54:14.591Z,-1.00
2018-03-24T04:56:43.742Z,-1.00
2018-03-24T04:59:12.696Z,-1.10
2018-03-24T05:01:42.082Z,-1.30
2018-03-24T05:04:10.712Z,-1.30
2018-03-24T05:06:40.172Z,-1.50
2018-03-24T05:09:09.144Z,-1.60
2018-03-24T05:11:38.501Z,-1.70
2018-03-24T05:14:07.122Z,-1.70
2018-03-24T05:16:35.798Z,-1.70
2018-03-24T05:19:04.590Z,-1.70
2018-03-24T05:21:34.110Z,-1.70
2018-03-24T05:24:02.888Z,-1.70
2018-03-24T05:26:31.881Z,-1.70
2018-03-24T05:29:01.170Z,-1.70
2018-03-24T05:31:30.583Z,-1.60
2018-03-24T05:34:00.055Z,-1.60
2018-03-24T05:36:28.793Z,-1.60
2018-03-24T05:38:57.592Z,-1.50
2018-03-24T05:41:26.383Z,-1.50
2018-03-24T05:43:55.215Z,-1.30
2018-03-24T05:46:23.858Z,-0.90
2018-03-24T05:48:54.384Z,-0.20
2018-03-24T05:51:23.107Z,-0.20
2018-03-24T05:53:52.601Z,0.50
2018-03-24T05:56:23.237Z,0.40
2018-03-24T05:58:52.047Z,0.60
2018-03-24T06:01:20.737Z,0.90
2018-03-24T06:03:49.480Z,1.20
2018-03-24T06:06:18.243Z,1.40
2018-03-24T06:08:46.877Z,1.60
2018-03-24T06:11:15.571Z,1.90
2018-03-24T06:13:44.291Z,2.10
2018-03-24T06:16:16.507Z,2.30
2018-03-24T06:22:20.341Z,2.80
2018-03-24T06:24:49.086Z,3.00
2018-03-24T06:27:17.780Z,3.00
2018-03-24T06:29:46.594Z,3.30
2018-03-24T06:32:15.678Z,3.50
2018-03-24T06:34:45.132Z,3.70
2018-03-24T06:37:16.664Z,3.90
2018-03-24T06:39:46.099Z,4.70
2018-03-24T06:42:14.825Z,4.70
2018-03-24T06:44:43.402Z,5.00
2018-03-24T06:47:12.038Z,5.20
2018-03-24T06:49:40.671Z,5.40
2018-03-24T06:52:09.408Z,5.60
2018-03-24T06:54:38.804Z,6.30
2018-03-24T06:57:07.557Z,6.30
2018-03-24T06:59:39.902Z,6.20
2018-03-24T07:02:09.239Z,6.60
2018-03-24T07:04:38.564Z,6.90
2018-03-24T07:07:07.162Z,7.10
2018-03-24T07:09:35.919Z,7.30
2018-03-24T07:12:04.660Z,7.50
2018-03-24T07:14:34.329Z,7.90
2018-03-24T07:17:03.102Z,8.00
2018-03-24T07:19:32.100Z,8.10
2018-03-24T07:22:00.912Z,8.30
2018-03-24T07:24:29.714Z,8.20
2018-03-24T07:26:58.322Z,8.60
2018-03-24T07:29:27.776Z,9.30
2018-03-24T07:31:57.166Z,9.30
2018-03-24T07:34:26.777Z,9.50
2018-03-24T07:36:55.505Z,9.80
2018-03-24T07:39:24.131Z,10.00
2018-03-24T07:41:53.153Z,10.00
2018-03-24T07:44:21.803Z,10.20
2018-03-24T07:46:50.548Z,10.20
2018-03-24T07:49:19.256Z,10.40
2018-03-24T07:51:47.886Z,10.50
2018-03-24T07:54:16.652Z,10.90
2018-03-24T07:56:45.361Z,10.80
2018-03-24T08:00:03.377Z,11.00
2018-03-24T08:02:32.048Z,11.70
2018-03-24T08:05:01.892Z,12.80
2018-03-24T08:07:30.716Z,12.80
2018-03-24T08:09:59.444Z,12.90
2018-03-24T08:12:28.182Z,13.10
2018-03-24T08:14:56.956Z,12.90
2018-03-24T08:17:25.555Z,13.00
2018-03-24T08:19:54.208Z,12.50
2018-03-24T08:22:22.763Z,12.60
2018-03-24T08:24:51.485Z,12.90
2018-03-24T08:27:20.373Z,13.20
2018-03-24T08:29:50.000Z,13.10
2018-03-24T08:32:18.923Z,12.90
2018-03-24T08:34:47.599Z,13.40
2018-03-24T08:37:16.646Z,13.90
2018-03-24T08:39:45.681Z,13.60
2018-03-24T08:42:14.437Z,14.70
2018-03-24T08:44:43.724Z,14.80
2018-03-24T08:47:12.682Z,14.00
2018-03-24T08:49:41.376Z,14.30
2018-03-24T08:52:10.888Z,14.30
2018-03-24T08:54:44.348Z,14.90
2018-03-24T08:57:13.438Z,14.90
2018-03-24T08:59:42.413Z,15.50
2018-03-24T09:02:11.111Z,15.40
2018-03-24T09:04:39.803Z,15.00
2018-03-24T09:07:08.407Z,14.70
2018-03-24T09:09:37.041Z,13.70
2018-03-24T09:12:05.789Z,12.90
2018-03-24T09:14:34.472Z,12.40
2018-03-24T09:17:03.800Z,12.30
2018-03-24T09:19:33.332Z,12.90
2018-03-24T09:22:01.943Z,12.90
2018-03-24T09:24:30.604Z,13.10
2018-03-24T09:26:59.545Z,12.90
2018-03-24T09:29:28.448Z,13.00
2018-03-24T09:31:58.249Z,13.30
2018-03-24T09:34:26.906Z,13.30
2018-03-24T09:36:55.679Z,12.90
2018-03-24T09:39:24.309Z,12.50
2018-03-24T09:41:53.900Z,14.70
2018-03-24T09:44:22.481Z,14.70
2018-03-24T09:46:51.137Z,14.00
2018-03-24T09:49:21.020Z,13.40
2018-03-24T09:51:49.641Z,13.40
2018-03-24T09:54:19.164Z,13.60
2018-03-24T09:56:47.845Z,13.60
2018-03-24T09:59:16.741Z,12.90
2018-03-24T10:01:46.654Z,12.70
2018-03-24T10:04:16.765Z,13.00
2018-03-24T10:06:45.509Z,12.90
2018-03-24T10:09:15.272Z,13.10
2018-03-24T10:11:43.946Z,13.10
2018-03-24T10:14:13.932Z,12.50
2018-03-24T10:16:42.550Z,12.50
2018-03-24T10:19:11.449Z,12.50
2018-03-24T10:24:49.848Z,14.40
2018-03-24T10:27:18.867Z,14.40
2018-03-24T10:29:47.872Z,15.20
2018-03-24T10:32:17.148Z,15.80
2018-03-24T10:34:45.873Z,16.80
2018-03-24T10:37:14.728Z,17.20
2018-03-24T10:39:43.820Z,16.30
2018-03-24T10:42:13.223Z,16.20
2018-03-24T10:44:42.071Z,16.10
2018-03-24T10:47:10.915Z,16.70
2018-03-24T10:49:39.648Z,16.70
2018-03-24T10:52:08.488Z,17.10
2018-03-24T10:54:37.181Z,17.40
2018-03-24T10:57:06.911Z,16.00
2018-03-24T10:59:36.795Z,15.80
2018-03-24T11:02:06.120Z,15.80
2018-03-24T11:04:34.727Z,15.40
2018-03-24T11:07:03.387Z,14.40
2018-03-24T11:09:31.974Z,14.10
2018-03-24T11:12:01.440Z,13.50
2018-03-24T11:14:30.096Z,13.50
2018-03-24T11:16:58.825Z,13.30
2018-03-24T11:19:28.456Z,13.60
2018-03-24T11:21:57.854Z,14.00
2018-03-24T11:24:26.641Z,14.00
2018-03-24T11:26:55.475Z,14.60
2018-03-24T11:29:24.270Z,15.30
2018-03-24T11:31:53.236Z,15.80
2018-03-24T11:34:22.884Z,15.60
2018-03-24T11:36:52.029Z,15.80
2018-03-24T11:39:20.705Z,16.00
2018-03-24T11:41:49.368Z,15.90
2018-03-24T11:44:18.086Z,16.20
2018-03-24T11:46:47.570Z,15.30
2018-03-24T11:49:16.268Z,15.40
2018-03-24T11:51:45.037Z,16.00
2018-03-24T11:54:14.570Z,16.70
2018-03-24T11:56:43.209Z,16.60
2018-03-24T11:59:11.862Z,17.20
2018-03-24T12:01:41.371Z,17.10
2018-03-24T12:04:11.370Z,17.10
2018-03-24T12:06:40.411Z,17.00
2018-03-24T12:09:09.187Z,17.40
2018-03-24T12:11:37.792Z,18.10
2018-03-24T12:14:06.886Z,17.90
2018-03-24T12:16:35.694Z,17.80
2018-03-24T12:19:04.366Z,17.50
2018-03-24T12:21:33.020Z,17.30
2018-03-24T12:24:01.598Z,17.30
2018-03-24T12:26:31.122Z,15.90
2018-03-24T12:28:59.823Z,15.90
2018-03-24T12:31:28.550Z,15.60
2018-03-24T12:33:58.098Z,14.70
2018-03-24T12:36:28.427Z,14.40
2018-03-24T12:38:57.150Z,14.40
2018-03-24T12:41:25.864Z,14.40
2018-03-24T12:43:54.816Z,14.30
2018-03-24T12:46:23.485Z,14.20
2018-03-24T12:48:52.123Z,14.40
2018-03-24T12:51:20.805Z,14.30
2018-03-24T12:53:49.678Z,14.20
2018-03-24T12:56:19.341Z,14.20
2018-03-24T12:58:48.205Z,14.20
2018-03-24T13:01:18.076Z,14.60
2018-03-24T13:03:46.690Z,14.50
2018-03-24T13:06:15.698Z,14.70
2018-03-24T13:08:45.451Z,15.40
2018-03-24T13:11:14.397Z,16.30
2018-03-24T13:13:43.196Z,16.90
2018-03-24T13:16:12.467Z,17.20
2018-03-24T13:18:41.340Z,16.90
2018-03-24T13:21:10.958Z,15.30
2018-03-24T13:23:39.580Z,15.30
2018-03-24T13:26:09.182Z,15.30
2018-03-24T13:28:37.779Z,15.30
2018-03-24T13:31:06.630Z,15.30
2018-03-24T13:33:36.619Z,14.80
2018-03-24T13:36:06.599Z,14.80
2018-03-24T13:38:36.448Z,14.70
2018-03-24T13:41:05.326Z,14.80
2018-03-24T13:43:35.290Z,15.30
2018-03-24T13:46:03.986Z,15.30
2018-03-24T13:48:32.744Z,15.10
2018-03-24T13:51:01.413Z,15.00
2018-03-24T13:53:30.084Z,15.10
2018-03-24T13:55:58.780Z,14.80
2018-03-24T13:58:28.119Z,14.70
2018-03-24T14:00:56.964Z,14.70
2018-03-24T14:03:25.835Z,14.50
2018-03-24T14:05:54.528Z,14.30
2018-03-24T14:08:27.799Z,14.10
2018-03-24T14:10:56.603Z,14.10
2018-03-24T14:13:25.518Z,13.50
2018-03-24T14:15:54.278Z,13.50
2018-03-24T14:18:23.270Z,13.40
2018-03-24T14:20:52.405Z,13.50
2018-03-24T14:23:22.027Z,13.40
2018-03-24T14:25:50.797Z,13.40
2018-03-24T14:28:19.560Z,13.60
2018-03-24T14:30:48.482Z,13.60
2018-03-24T14:33:18.717Z,13.60
2018-03-24T14:35:47.841Z,13.60
2018-03-24T14:38:18.624Z,13.60
2018-03-24T14:40:48.438Z,13.60
2018-03-24T14:43:17.168Z,13.50
2018-03-24T14:45:45.890Z,13.30
2018-03-24T14:48:14.644Z,13.40
2018-03-24T14:50:43.450Z,13.60
2018-03-24T14:53:12.095Z,13.80
2018-03-24T14:55:41.722Z,13.60
2018-03-24T14:58:10.446Z,13.40
2018-03-24T15:00:39.130Z,13.30
2018-03-24T15:03:08.473Z,13.20
2018-03-24T15:05:38.417Z,13.20
2018-03-24T15:08:07.500Z,12.90
2018-03-24T15:10:37.589Z,12.70
2018-03-24T15:13:06.221Z,12.70
2018-03-24T15:15:35.591Z,12.90
2018-03-24T15:18:05.016Z,12.90
2018-03-24T15:20:33.743Z,12.70
2018-03-24T15:23:02.344Z,12.90
2018-03-24T15:25:31.083Z,12.70
2018-03-24T15:28:03.526Z,12.70
2018-03-24T15:30:52.397Z,12.70
2018-03-24T15:33:39.610Z,12.70
2018-03-24T15:36:26.281Z,12.60
2018-03-24T15:38:58.931Z,12.70
2018-03-24T15:41:28.262Z,12.50
2018-03-24T15:43:56.976Z,12.50
2018-03-24T15:46:25.839Z,12.40
2018-03-24T15:48:54.899Z,12.40
2018-03-24T15:51:24.202Z,12.40
2018-03-24T15:53:52.919Z,12.60
2018-03-24T15:56:21.578Z,12.90
2018-03-24T15:58:50.605Z,13.00
2018-03-24T16:01:19.659Z,13.20
2018-03-24T16:03:48.759Z,13.40
2018-03-24T16:06:18.197Z,12.80
2018-03-24T16:08:47.060Z,12.80
2018-03-24T16:11:15.805Z,12.60
2018-03-24T16:13:44.654Z,12.60
2018-03-24T16:16:14.372Z,12.50
2018-03-24T16:18:43.934Z,12.50
2018-03-24T16:21:13.570Z,12.50
2018-03-24T16:23:42.459Z,12.40
2018-03-24T16:26:12.261Z,12.30
2018-03-24T16:28:42.030Z,12.20
2018-03-24T16:31:11.840Z,12.10
2018-03-24T16:33:40.820Z,12.10
2018-03-24T16:36:09.836Z,12.10
2018-03-24T16:38:38.705Z,12.10
2018-03-24T16:41:07.685Z,12.10
2018-03-24T16:43:37.642Z,12.00
2018-03-24T16:46:08.052Z,11.80
2018-03-24T16:48:37.693Z,11.80
2018-03-24T16:51:06.817Z,11.80
2018-03-24T16:53:35.858Z,11.70
2018-03-24T16:56:05.069Z,11.50
2018-03-24T16:58:34.899Z,11.40
2018-03-24T17:01:04.734Z,11.10
2018-03-24T17:03:34.732Z,11.10
2018-03-24T17:06:04.053Z,11.00
2018-03-24T17:08:35.287Z,10.80
2018-03-24T17:11:06.892Z,10.70
2018-03-24T17:13:37.955Z,10.60
2018-03-24T17:16:08.055Z,10.40
2018-03-24T17:18:37.359Z,10.30
2018-03-24T17:21:07.157Z,10.20
2018-03-24T17:23:37.378Z,10.10
2018-03-24T17:26:11.429Z,10.00
2018-03-24T17:28:41.642Z,10.00
2018-03-24T17:31:11.570Z,9.90
2018-03-24T17:33:42.097Z,9.80
2018-03-24T17:36:13.179Z,9.70
2018-03-24T17:38:43.076Z,9.60
2018-03-24T17:41:13.001Z,9.50
2018-03-24T17:43:42.903Z,9.30
2018-03-24T17:46:12.869Z,9.30
2018-03-24T17:48:42.131Z,9.10
2018-03-24T17:51:16.433Z,9.10
2018-03-24T17:53:47.325Z,8.90
2018-03-24T17:56:22.168Z,8.70
2018-03-24T17:58:53.473Z,8.50
2018-03-24T18:01:24.975Z,8.30
2018-03-24T18:03:54.606Z,8.10
2018-03-24T18:06:25.089Z,8.00
2018-03-24T18:08:54.155Z,7.80
2018-03-24T18:11:24.265Z,7.60
2018-03-24T18:13:54.123Z,7.50
2018-03-24T18:16:23.335Z,7.50
2018-03-24T18:18:53.158Z,7.20
2018-03-24T18:21:23.183Z,7.10
2018-03-24T18:23:52.675Z,7.10
2018-03-24T18:26:22.807Z,7.00
2018-03-24T18:28:52.934Z,6.80
2018-03-24T18:31:22.430Z,6.80
2018-03-24T18:33:52.263Z,6.70
2018-03-24T18:36:23.021Z,6.50
2018-03-24T18:38:53.062Z,6.40
2018-03-24T18:41:23.004Z,6.30
2018-03-24T18:43:52.002Z,6.30
2018-03-24T18:46:33.485Z,6.20
2018-03-24T18:49:09.520Z,6.10
2018-03-24T18:51:39.286Z,6.00
2018-03-24T18:54:08.398Z,6.00
2018-03-24T18:56:38.368Z,6.00
2018-03-24T18:59:07.742Z,5.90
2018-03-24T19:01:36.981Z,5.90
2018-03-24T19:04:06.821Z,5.90
2018-03-24T19:06:36.692Z,5.80
2018-03-24T19:09:07.107Z,5.70
2018-03-24T19:11:37.307Z,5.60
2018-03-24T19:14:09.009Z,5.60
2018-03-24T19:16:39.034Z,5.40
2018-03-24T19:19:08.039Z,5.30
2018-03-24T19:21:38.017Z,5.20
2018-03-24T19:24:07.168Z,5.10
2018-03-24T19:26:36.191Z,5.10
2018-03-24T19:29:05.466Z,5.00
2018-03-24T19:31:34.674Z,4.90
2018-03-24T19:34:04.507Z,4.60
2018-03-24T19:36:34.326Z,4.50
2018-03-24T19:39:04.782Z,4.50
2018-03-24T19:41:36.224Z,4.50
2018-03-24T19:44:05.359Z,4.50
2018-03-24T19:46:36.544Z,4.50
2018-03-24T19:49:05.813Z,4.50
2018-03-24T19:51:36.793Z,4.50
2018-03-24T19:54:06.295Z,4.50
2018-03-24T19:56:35.789Z,4.40
2018-03-24T19:59:05.037Z,4.40
2018-03-24T20:01:34.604Z,4.40
2018-03-24T20:04:05.248Z,4.30
2018-03-24T20:06:35.063Z,4.20
2018-03-24T20:09:04.215Z,4.20
2018-03-24T20:11:34.771Z,4.10
2018-03-24T20:14:04.322Z,4.10
2018-03-24T20:16:33.559Z,4.10
2018-03-24T20:19:03.357Z,4.00
2018-03-24T20:21:32.439Z,3.90
2018-03-24T20:24:01.686Z,3.80
2018-03-24T20:26:30.823Z,3.80
2018-03-24T20:29:00.390Z,3.70
2018-03-24T20:31:29.997Z,3.60
2018-03-24T20:34:00.630Z,3.50
2018-03-24T20:36:31.785Z,3.50
2018-03-24T20:39:04.021Z,3.40
2018-03-24T20:41:33.364Z,3.40
2018-03-24T20:46:46.179Z,3.30
2018-03-24T20:49:15.983Z,3.30
2018-03-24T20:51:45.588Z,3.20
2018-03-24T20:54:15.713Z,3.20
2018-03-24T20:56:46.660Z,3.00
2018-03-24T20:59:16.808Z,3.00
2018-03-24T21:01:48.801Z,2.90
2018-03-24T21:04:42.503Z,2.90
2018-03-24T21:07:12.601Z,2.90
2018-03-24T21:09:42.178Z,2.80
2018-03-24T21:12:12.284Z,2.70
2018-03-24T21:14:42.170Z,2.70
2018-03-24T21:17:18.148Z,2.60
2018-03-24T21:19:49.165Z,2.60
2018-03-24T21:22:20.432Z,2.60
2018-03-24T21:24:49.884Z,2.60
2018-03-24T21:27:19.893Z,2.60
2018-03-24T21:29:50.435Z,2.60
2018-03-24T21:32:20.921Z,2.50
2018-03-24T21:34:50.797Z,2.40
2018-03-24T21:37:21.447Z,2.40
2018-03-24T21:39:51.114Z,2.30
2018-03-24T21:42:19.909Z,2.30
2018-03-24T21:44:50.927Z,2.20
2018-03-24T21:47:19.713Z,2.10
2018-03-24T21:49:49.240Z,2.00
2018-03-24T21:52:17.953Z,2.00
2018-03-24T21:54:47.068Z,1.90
2018-03-24T21:57:18.010Z,1.70
2018-03-24T21:59:47.641Z,1.70
2018-03-24T22:02:16.894Z,1.60
2018-03-24T22:04:45.662Z,1.50
2018-03-24T22:07:14.430Z,1.60
2018-03-24T22:09:43.120Z,1.60
2018-03-24T22:12:12.509Z,1.70
2018-03-24T22:14:41.211Z,1.70
2018-03-24T22:17:10.008Z,1.80
2018-03-24T22:19:39.186Z,1.80
2018-03-24T22:22:07.917Z,1.70
2018-03-24T22:24:36.799Z,1.60
2018-03-24T22:27:06.655Z,1.60
2018-03-24T22:29:35.620Z,1.60
2018-03-24T22:32:04.954Z,1.60
2018-03-24T22:34:33.512Z,1.60
2018-03-24T22:37:02.189Z,1.60
2018-03-24T22:39:30.986Z,1.60
2018-03-24T22:42:00.483Z,1.30
2018-03-24T22:44:29.190Z,1.30
2018-03-24T22:46:58.087Z,1.20
2018-03-24T22:49:26.859Z,1.10
2018-03-24T22:51:55.963Z,1.00
2018-03-24T22:54:24.747Z,1.00
2018-03-24T22:56:53.621Z,1.00
2018-03-24T22:59:22.479Z,1.00
2018-03-24T23:01:52.915Z,0.90
2018-03-24T23:04:22.117Z,0.90
2018-03-24T23:06:50.959Z,0.90
2018-03-24T23:09:21.107Z,0.90
2018-03-24T23:11:52.358Z,0.90
2018-03-24T23:14:23.551Z,0.90
2018-03-24T23:16:52.335Z,0.80
2018-03-24T23:19:21.019Z,0.80
2018-03-24T23:21:49.837Z,0.70
2018-03-24T23:24:18.521Z,0.60
2018-03-24T23:26:47.221Z,0.60
2018-03-24T23:29:16.845Z,0.60
2018-03-24T23:31:45.714Z,0.50
2018-03-24T23:34:15.152Z,0.60
2018-03-24T23:36:43.817Z,0.60
2018-03-24T23:39:12.493Z,0.60
2018-03-24T23:41:41.131Z,0.60
2018-03-24T23:44:09.818Z,0.50
2018-03-24T23:46:38.486Z,0.50
2018-03-24T23:49:07.275Z,0.50
2018-03-24T23:51:36.661Z,0.40
2018-03-24T23:54:05.300Z,0.40
2018-03-24T23:56:34.756Z,0.40
2018-03-24T23:59:03.983Z,0.40
